Time;durP1;ratioP1;P1;durP2;ratioP2;P2;SDS_P1;SDS_P2;PMS_P1;PMS_P2;Temp;Humidity;BMP_temperature;BMP_pressure;BME280_temperature;BME280_humidity;BME280_pressure;Samples;Min_cycle;Max_cycle;Signal;HPM_P1;HPM_P2
2021/01/08 00:00:00;;;;;;;20.57;14.80;;;-1.70;1.40;;;-0.81;100.00;94965.85;653713;215;24444;-72
2021/01/08 00:02:29;;;;;;;24.80;15.80;;;-1.70;1.40;;;-0.79;100.00;94967.85;652948;215;26707;-72
2021/01/08 00:04:57;;;;;;;25.08;19.25;;;-1.70;1.40;;;-0.88;100.00;94964.22;650238;216;32232;-72
2021/01/08 00:07:26;;;;;;;22.43;18.13;;;-1.60;1.40;;;-0.97;100.00;94965.72;658541;215;24587;-72
2021/01/08 00:09:55;;;;;;;26.67;19.08;;;-1.50;1.40;;;-1.02;100.00;94966.53;651038;216;31588;-72
2021/01/08 00:12:23;;;;;;;22.60;17.27;;;-1.50;1.40;;;-1.05;100.00;94961.97;656412;216;23463;-73
2021/01/08 00:14:51;;;;;;;17.83;14.87;;;-1.50;1.40;;;-1.04;100.00;94958.54;658855;215;24490;-72
2021/01/08 00:17:20;;;;;;;22.30;15.63;;;-1.50;1.40;;;-0.96;100.00;94962.31;655581;216;24997;-73
2021/01/08 00:19:48;;;;;;;24.63;19.42;;;-1.40;1.40;;;-0.94;100.00;94958.62;653301;215;31669;-72
2021/01/08 00:22:17;;;;;;;21.23;16.20;;;-1.40;1.40;;;-0.99;100.00;94963.98;641853;220;23536;-73
2021/01/08 00:24:45;;;;;;;18.87;14.00;;;-1.40;1.40;;;-0.99;100.00;94957.86;658568;215;24467;-73
2021/01/08 00:27:13;;;;;;;20.13;15.13;;;-1.40;1.40;;;-1.00;100.00;94957.05;642193;220;24497;-71
2021/01/08 00:29:42;;;;;;;20.10;15.00;;;-1.40;1.40;;;-1.03;100.00;94956.16;643750;219;24545;-72
2021/01/08 00:32:11;;;;;;;19.67;15.13;;;-1.40;1.40;;;-1.06;100.00;94956.53;633510;224;26524;-72
2021/01/08 00:37:14;;;;;;;24.05;18.67;;;-1.40;1.40;;;-1.06;100.00;94953.45;647514;216;42238;-73
2021/01/08 00:39:44;;;;;;;21.63;17.40;;;-1.50;1.40;;;-0.95;100.00;94955.00;641446;220;23515;-72
2021/01/08 00:42:11;;;;;;;25.33;17.70;;;-1.50;1.40;;;-1.00;100.00;94948.27;665039;214;24469;-72
2021/01/08 00:44:39;;;;;;;19.67;15.30;;;-1.60;1.40;;;-1.09;100.00;94952.08;651834;218;24522;-73
2021/01/08 00:47:08;;;;;;;22.53;15.27;;;-1.70;1.40;;;-1.21;100.00;94957.52;652908;219;24467;-73
2021/01/08 00:49:37;;;;;;;23.33;15.60;;;-1.80;1.40;;;-1.27;100.00;94953.06;636914;223;24531;-72
2021/01/08 00:52:05;;;;;;;23.83;17.70;;;-1.90;1.40;;;-1.20;100.00;94954.12;634049;222;32607;-71
2021/01/08 00:54:33;;;;;;;25.12;18.98;;;-1.90;1.40;;;-1.13;100.00;94949.98;629823;223;31909;-71
2021/01/08 00:57:02;;;;;;;19.97;15.30;;;-2.00;1.40;;;-1.21;100.00;94949.59;665181;213;23593;-71
2021/01/08 00:59:30;;;;;;;21.30;15.67;;;-2.00;1.40;;;-1.24;100.00;94949.23;652373;219;26634;-71
2021/01/08 01:01:59;;;;;;;21.63;16.23;;;-1.90;1.40;;;-1.28;100.00;94952.63;664226;214;24474;-72
2021/01/08 01:04:27;;;;;;;23.23;18.77;;;-1.90;1.40;;;-1.29;100.00;94949.73;657478;214;31667;-71
2021/01/08 01:06:55;;;;;;;22.40;16.80;;;-1.80;1.40;;;-1.30;100.00;94949.23;665030;214;23428;-71
2021/01/08 01:09:24;;;;;;;22.53;16.37;;;-1.80;1.40;;;-1.29;100.00;94952.88;665101;214;24427;-71
2021/01/08 01:11:52;;;;;;;25.10;17.13;;;-1.70;1.40;;;-1.26;100.00;94958.23;664962;213;24454;-71
2021/01/08 01:14:21;;;;;;;23.57;16.50;;;-1.70;1.40;;;-1.25;100.00;94961.33;664822;214;24441;-73
2021/01/08 01:16:49;;;;;;;22.53;16.40;;;-1.60;1.40;;;-1.26;100.00;94959.20;664176;214;24434;-71
2021/01/08 01:19:17;;;;;;;20.50;14.70;;;-1.60;1.40;;;-1.27;100.00;94965.88;639202;220;25703;-72
2021/01/08 01:21:46;;;;;;;21.90;16.50;;;-1.60;1.40;;;-1.28;100.00;94966.39;633857;222;31792;-72
2021/01/08 01:24:14;;;;;;;22.60;15.53;;;-1.60;1.40;;;-1.28;100.00;94972.13;640165;222;23581;-72
2021/01/08 01:26:43;;;;;;;19.67;15.10;;;-1.60;1.40;;;-1.29;100.00;94968.88;640411;222;24539;-72
2021/01/08 01:29:11;;;;;;;20.93;15.10;;;-1.60;1.40;;;-1.24;100.00;94969.97;640086;222;24521;-71
2021/01/08 01:31:40;;;;;;;19.20;12.50;;;-1.70;1.40;;;-1.22;100.00;94967.88;663701;214;24451;-72
2021/01/08 01:34:08;;;;;;;20.33;16.87;;;-1.70;1.40;;;-1.19;100.00;94974.02;658851;214;32277;-71
2021/01/08 01:39:14;;;;;;;20.60;17.58;;;-2.00;1.40;;;-1.29;100.00;94971.64;642356;216;32679;-72
2021/01/08 01:41:42;;;;;;;19.20;14.70;;;-2.10;1.40;;;-1.32;100.00;94975.81;629958;224;26843;-72
2021/01/08 01:44:11;;;;;;;19.70;15.03;;;-2.20;1.40;;;-1.28;100.00;94976.81;627451;225;24569;-71
2021/01/08 01:46:39;;;;;;;20.17;13.03;;;-2.20;1.40;;;-1.36;100.00;94976.55;626609;225;24563;-72
2021/01/08 01:49:07;;;;;;;24.08;18.02;;;-2.20;1.40;;;-1.40;100.00;94975.16;622407;224;31967;-71
2021/01/08 01:54:10;;;;;;;20.30;17.23;;;-2.10;1.40;;;-1.36;100.00;94975.59;648550;216;31679;-71
2021/01/08 01:56:38;;;;;;;22.37;16.07;;;-2.10;1.40;;;-1.38;100.00;94974.66;643535;220;23517;-71
2021/01/08 01:59:07;;;;;;;21.97;14.80;;;-2.10;1.40;;;-1.32;100.00;94980.77;641635;221;24518;-71
2021/01/08 02:01:35;;;;;;;14.23;12.73;;;-2.00;1.40;;;-1.17;100.00;94980.55;639046;220;24756;-72
2021/01/08 02:04:05;;;;;;;19.57;14.07;;;-2.00;1.40;;;-1.24;100.00;94983.57;640272;220;24537;-71
2021/01/08 02:06:34;;;;;;;17.37;13.13;;;-1.90;1.40;;;-1.41;100.00;94987.53;639090;221;25657;-71
2021/01/08 02:09:03;;;;;;;15.00;11.90;;;-1.90;1.40;;;-1.43;100.00;94983.66;638063;221;24558;-71
2021/01/08 02:11:31;;;;;;;21.30;14.47;;;-2.00;1.40;;;-1.42;100.00;94983.20;638641;220;24570;-72
2021/01/08 02:14:04;;;;;;;22.20;16.37;;;-2.00;1.40;;;-1.44;100.00;94983.81;639072;220;31907;-71
2021/01/08 02:16:32;;;;;;;20.67;16.40;;;-2.00;1.40;;;-1.31;100.00;94984.23;669483;211;23437;-71
2021/01/08 02:19:00;;;;;;;21.47;15.87;;;-2.00;1.40;;;-1.25;100.00;94984.30;670263;211;24443;-71
2021/01/08 02:21:29;;;;;;;17.70;14.40;;;-2.00;1.40;;;-1.29;100.00;94981.91;655944;216;24507;-71
2021/01/08 02:24:17;;;;;;;15.43;13.07;;;-1.90;1.40;;;-1.26;100.00;94983.13;646134;220;24547;-71
2021/01/08 02:26:58;;;;;;;23.55;17.48;;;-1.80;1.40;;;-1.19;100.00;94979.23;647397;212;31707;-71
2021/01/08 02:29:27;;;;;;;22.60;16.47;;;-1.80;1.40;;;-1.15;100.00;94982.75;640404;221;28829;-71
2021/01/08 02:31:55;;;;;;;20.17;13.80;;;-1.90;1.40;;;-1.14;100.00;94980.43;642456;220;24524;-72
2021/01/08 02:34:24;;;;;;;17.50;13.30;;;-1.80;1.40;;;-1.15;100.00;94981.59;640926;221;24530;-72
2021/01/08 02:36:52;;;;;;;20.50;13.33;;;-1.70;1.40;;;-1.09;100.00;94979.58;641303;220;24518;-72
2021/01/08 02:39:20;;;;;;;19.37;13.90;;;-1.70;1.40;;;-1.10;100.00;94978.23;634866;221;24722;-71
2021/01/08 02:41:49;;;;;;;22.10;16.80;;;-1.70;1.40;;;-1.06;100.00;94975.90;639781;219;40235;-72
2021/01/08 02:44:17;;;;;;;23.73;17.67;;;-1.70;1.40;;;-1.01;100.00;94976.13;629710;224;24550;-72
2021/01/08 02:46:46;;;;;;;15.83;14.00;;;-1.70;1.40;;;-1.05;100.00;94984.00;633391;225;24578;-72
2021/01/08 02:49:14;;;;;;;23.65;18.23;;;-1.70;1.40;;;-1.08;100.00;94977.79;650606;215;31689;-73
2021/01/08 02:51:43;;;;;;;24.10;16.60;;;-1.70;1.40;;;-1.12;100.00;94978.81;643391;220;23557;-72
2021/01/08 02:54:11;;;;;;;18.63;13.70;;;-1.70;1.40;;;-1.12;100.00;94982.86;633362;225;24579;-73
2021/01/08 02:56:45;;;;;;;19.10;14.70;;;-1.70;1.40;;;-1.12;100.00;94977.16;631479;225;24591;-72
2021/01/08 02:59:13;;;;;;;16.77;13.23;;;-1.70;1.40;;;-1.08;100.00;94976.67;629450;224;24644;-72
2021/01/08 03:06:50;;;;;;;21.52;17.70;;;-1.60;1.40;;;-1.07;100.00;94976.52;619014;222;31998;-72
2021/01/08 03:09:18;;;;;;;22.25;17.87;;;-1.60;1.40;;;-1.00;100.00;94977.79;639020;220;32135;-72
2021/01/08 03:11:59;;;;;;;21.90;17.07;;;-1.60;1.40;;;-1.04;100.00;94981.78;638254;220;25544;-72
2021/01/08 03:17:01;;;;;;;21.85;16.77;;;-1.60;1.40;;;-1.05;100.00;94978.46;646056;212;31886;-71
2021/01/08 03:19:30;;;;;;;19.90;14.80;;;-1.60;1.40;;;-1.19;100.00;94974.12;642413;221;23475;-71
2021/01/08 03:21:58;;;;;;;20.03;14.43;;;-1.60;1.40;;;-1.11;100.00;94972.48;641400;221;25549;-72
2021/01/08 03:24:26;;;;;;;18.90;14.13;;;-1.60;1.40;;;-1.04;100.00;94974.50;639718;221;24557;-71
2021/01/08 03:26:55;;;;;;;23.52;18.12;;;-1.50;1.40;;;-1.01;100.00;94976.72;633596;221;31821;-71
2021/01/08 03:29:23;;;;;;;24.40;18.35;;;-1.40;1.40;;;-1.07;100.00;94976.20;635411;221;32453;-71
2021/01/08 03:31:52;;;;;;;20.13;14.03;;;-1.50;1.40;;;-0.98;100.00;94975.75;641931;220;23478;-71
2021/01/08 03:34:20;;;;;;;22.20;15.07;;;-1.50;1.40;;;-0.98;100.00;94972.67;638451;220;24598;-72
2021/01/08 03:36:48;;;;;;;21.52;17.17;;;-1.50;1.40;;;-0.93;100.00;94976.41;633954;220;31784;-72
2021/01/08 03:39:17;;;;;;;20.93;15.47;;;-1.40;1.40;;;-0.95;100.00;94974.95;638686;221;23539;-72
2021/01/08 03:41:45;;;;;;;18.30;15.03;;;-1.40;1.40;;;-1.09;100.00;94975.43;641284;220;24546;-72
2021/01/08 03:44:14;;;;;;;21.30;15.40;;;-1.50;1.40;;;-0.97;100.00;94968.95;652602;215;24506;-71
2021/01/08 03:46:42;;;;;;;21.93;13.53;;;-1.40;1.40;;;-0.98;100.00;94975.85;656246;215;24491;-72
2021/01/08 03:49:10;;;;;;;22.07;12.77;;;-1.40;1.40;;;-0.98;100.00;94968.56;643410;221;24531;-72
2021/01/08 03:51:39;;;;;;;20.70;14.83;;;-1.30;1.40;;;-0.98;100.00;94967.55;656925;215;24490;-73
2021/01/08 03:54:07;;;;;;;25.17;18.08;;;-1.40;1.40;;;-0.89;100.00;94965.52;635550;220;32363;-72
2021/01/08 03:56:36;;;;;;;24.00;17.90;;;-1.30;1.40;;;-0.92;100.00;94968.04;637704;221;31829;-72
2021/01/08 03:59:04;;;;;;;20.63;15.20;;;-1.30;1.40;;;-0.96;100.00;94963.06;656510;216;23448;-72
2021/01/08 04:01:33;;;;;;;21.30;15.70;;;-1.30;1.40;;;-0.83;100.00;94958.75;641311;220;24493;-74
2021/01/08 04:04:04;;;;;;;20.80;14.77;;;-1.20;1.40;;;-0.89;100.00;94964.52;641487;220;24537;-70
2021/01/08 04:06:32;;;;;;;21.07;15.63;;;-1.30;1.40;;;-0.80;100.00;94962.98;640521;220;24760;-73
2021/01/08 04:11:39;;;;;;;25.55;18.48;;;-1.10;1.40;;;-0.78;100.00;94965.36;619917;222;31956;-74
2021/01/08 04:14:08;;;;;;;24.53;17.47;;;-1.10;1.40;;;-0.80;100.00;94962.41;616896;230;28859;-73
2021/01/08 04:16:36;;;;;;;21.97;15.63;;;-1.10;1.40;;;-0.78;100.00;94962.97;616141;230;24618;-73
2021/01/08 04:19:05;;;;;;;21.70;16.10;;;-1.20;1.40;;;-0.77;100.00;94965.64;617234;230;24603;-72
2021/01/08 04:21:34;;;;;;;26.52;19.00;;;-1.10;1.40;;;-0.80;100.00;94962.36;608822;230;32080;-72
2021/01/08 04:24:04;;;;;;;25.47;20.00;;;-1.10;1.40;;;-0.68;100.00;94963.45;609263;229;32721;-73
2021/01/08 04:26:32;;;;;;;23.40;18.73;;;-1.10;1.40;;;-0.71;100.00;94966.12;611865;230;32230;-72
2021/01/08 04:29:02;;;;;;;25.67;19.87;;;-1.10;1.40;;;-0.74;100.00;94965.13;608932;229;32114;-72
2021/01/08 04:31:31;;;;;;;21.67;17.13;;;-1.10;1.40;;;-0.78;100.00;94968.07;615270;230;24589;-71
2021/01/08 04:33:59;;;;;;;24.37;15.87;;;-1.10;1.40;;;-0.83;100.00;94970.45;616622;230;28892;-72
2021/01/08 04:36:29;;;;;;;19.77;15.37;;;-1.20;1.40;;;-0.85;100.00;94966.75;614878;230;27849;-73
2021/01/08 04:38:57;;;;;;;25.25;19.52;;;-1.20;1.40;;;-0.77;100.00;94964.20;607977;230;32351;-73
2021/01/08 04:41:26;;;;;;;24.23;17.07;;;-1.20;1.40;;;-0.73;100.00;94967.31;605603;234;24621;-72
2021/01/08 04:43:57;;;;;;;23.20;15.67;;;-1.20;1.40;;;-0.76;100.00;94965.33;616683;229;25823;-73
2021/01/08 04:46:30;;;;;;;21.97;14.63;;;-1.20;1.40;;;-0.76;100.00;94967.94;608748;232;24602;-73
2021/01/08 04:48:59;;;;;;;20.97;15.67;;;-1.20;1.40;;;-0.80;100.00;94968.21;604733;234;24634;-73
2021/01/08 04:51:28;;;;;;;22.90;15.83;;;-1.10;1.40;;;-0.73;100.00;94968.17;605081;234;24664;-72
2021/01/08 04:53:58;;;;;;;26.65;19.80;;;-1.10;1.40;;;-0.74;100.00;94968.48;598914;234;32276;-72
2021/01/08 04:56:28;;;;;;;21.77;16.73;;;-1.10;1.40;;;-0.66;100.00;94971.45;602318;233;23618;-73
2021/01/08 04:58:58;;;;;;;22.77;15.50;;;-1.10;1.40;;;-0.69;100.00;94971.47;615914;229;26003;-72
2021/01/08 05:01:27;;;;;;;24.20;16.13;;;-1.10;1.40;;;-0.74;100.00;94968.13;616572;230;24699;-72
2021/01/08 05:03:56;;;;;;;25.70;18.55;;;-1.10;1.40;;;-0.84;100.00;94968.10;612217;229;32644;-72
2021/01/08 05:06:26;;;;;;;23.10;16.30;;;-1.20;1.40;;;-0.85;100.00;94967.08;615261;230;23530;-72
2021/01/08 05:08:54;;;;;;;28.25;19.50;;;-1.20;1.40;;;-0.78;100.00;94967.12;599011;234;32851;-72
2021/01/08 05:11:26;;;;;;;25.03;16.50;;;-1.20;1.40;;;-0.82;100.00;94967.54;593624;234;24663;-72
2021/01/08 05:13:58;;;;;;;27.30;16.70;;;-1.20;1.40;;;-0.87;100.00;94963.00;604217;234;24888;-72
2021/01/08 05:16:26;;;;;;;25.27;18.60;;;-1.10;1.40;;;-0.87;100.00;94967.31;596142;234;32314;-71
2021/01/08 05:18:55;;;;;;;24.23;19.25;;;-1.10;1.40;;;-0.82;100.00;94969.56;599350;234;32432;-71
2021/01/08 05:21:25;;;;;;;25.53;17.73;;;-1.10;1.40;;;-0.82;100.00;94971.21;603970;234;23623;-71
2021/01/08 05:23:54;;;;;;;22.70;17.10;;;-1.10;1.40;;;-0.79;100.00;94970.13;602706;234;25719;-71
2021/01/08 05:26:22;;;;;;;25.20;16.80;;;-1.10;1.40;;;-0.76;100.00;94970.23;602646;234;25722;-72
2021/01/08 05:28:53;;;;;;;27.20;17.80;;;-1.10;1.40;;;-0.76;100.00;94972.25;606594;234;24678;-72
2021/01/08 05:31:22;;;;;;;23.75;17.65;;;-1.20;1.40;;;-0.82;100.00;94974.03;598236;234;32240;-72
2021/01/08 05:35:51;;;;;;;26.98;20.00;;;-1.30;1.40;;;-0.78;100.00;94970.63;649323;216;31562;-72
2021/01/08 05:38:20;;;;;;;28.47;18.67;;;-1.30;1.40;;;-0.81;100.00;94972.88;641139;221;23551;-72
2021/01/08 05:40:48;;;;;;;21.27;15.27;;;-1.30;1.40;;;-0.92;100.00;94978.84;627391;225;24930;-72
2021/01/08 05:43:17;;;;;;;27.30;19.30;;;-1.40;1.40;;;-1.02;100.00;94977.45;625566;225;33065;-71
2021/01/08 05:45:45;;;;;;;24.90;17.10;;;-1.40;1.40;;;-0.92;100.00;94980.61;642615;221;23459;-70
2021/01/08 05:48:14;;;;;;;19.90;14.27;;;-1.50;1.40;;;-0.94;100.00;94980.28;642024;220;24652;-70
2021/01/08 05:50:42;;;;;;;18.93;14.83;;;-1.50;1.40;;;-1.01;100.00;94989.48;627066;224;25925;-71
2021/01/08 05:53:11;;;;;;;19.47;15.13;;;-1.50;1.40;;;-0.94;100.00;94988.42;655326;215;27700;-71
2021/01/08 05:58:20;;;;;;;24.25;17.45;;;-1.60;1.40;;;-1.02;100.00;94987.34;647262;212;31585;-71
2021/01/08 06:00:56;;;;;;;26.33;16.80;;;-1.70;1.40;;;-1.15;100.00;94986.53;640687;221;23512;-73
2021/01/08 06:03:24;;;;;;;25.17;18.90;;;-1.70;1.40;;;-1.18;100.00;94985.73;648030;215;31707;-73
2021/01/08 06:05:55;;;;;;;23.90;17.10;;;-1.70;1.40;;;-1.23;100.00;94986.84;670065;211;23428;-71
2021/01/08 06:08:29;;;;;;;24.37;18.60;;;-1.70;1.40;;;-1.23;100.00;94992.41;673038;211;29766;-71
2021/01/08 06:10:58;;;;;;;19.40;14.60;;;-1.70;1.40;;;-1.23;100.00;94994.98;670161;211;24420;-71
2021/01/08 06:13:27;;;;;;;24.02;18.30;;;-1.70;1.40;;;-1.14;100.00;95000.64;662933;211;31433;-71
2021/01/08 06:15:55;;;;;;;22.97;14.93;;;-1.70;1.40;;;-1.19;100.00;94996.62;669692;211;23477;-71
2021/01/08 06:18:25;;;;;;;19.00;13.60;;;-1.60;1.40;;;-1.13;100.00;94994.64;667205;211;24504;-71
2021/01/08 06:20:54;;;;;;;19.80;13.37;;;-1.60;1.40;;;-1.19;100.00;94999.19;655531;216;24856;-72
2021/01/08 06:23:48;;;;;;;16.93;14.07;;;-1.50;1.40;;;-1.12;100.00;95001.15;650986;216;24496;-71
2021/01/08 06:26:16;;;;;;;21.90;16.85;;;-1.50;1.40;;;-1.07;100.00;95003.12;664839;211;32146;-71
2021/01/08 06:28:46;;;;;;;22.67;17.00;;;-1.40;1.40;;;-1.04;100.00;94999.02;662639;211;32094;-72
2021/01/08 06:31:45;;;;;;;19.10;14.83;;;-1.40;1.40;;;-0.99;100.00;95000.41;668997;211;23456;-71
2021/01/08 06:36:48;;;;;;;22.80;16.60;;;-1.20;1.40;;;-0.88;100.00;95003.47;649209;212;31630;-73
2021/01/08 06:39:16;;;;;;;19.50;13.80;;;-1.20;1.40;;;-0.87;100.00;95001.31;636357;220;24578;-71
2021/01/08 06:41:45;;;;;;;18.83;13.20;;;-1.20;1.40;;;-0.83;100.00;95009.72;628994;225;24578;-72
2021/01/08 06:44:13;;;;;;;18.30;12.80;;;-1.20;1.40;;;-0.82;100.00;95002.93;639746;220;24574;-71
2021/01/08 06:49:16;;;;;;;19.35;14.48;;;-1.30;1.40;;;-0.89;100.00;95007.35;621082;226;32537;-71
2021/01/08 06:51:45;;;;;;;20.50;13.53;;;-1.30;1.40;;;-0.88;100.00;95009.81;641929;220;23484;-72
2021/01/08 06:56:49;;;;;;;18.75;13.60;;;-1.30;1.40;;;-0.88;100.00;95010.29;647041;216;31681;-71
2021/01/08 06:59:20;;;;;;;17.73;12.57;;;-1.30;1.40;;;-0.89;100.00;95011.92;650312;219;29806;-73
2021/01/08 07:01:53;;;;;;;12.87;10.73;;;-1.40;1.40;;;-0.93;100.00;95015.30;672918;211;24455;-73
2021/01/08 07:04:27;;;;;;;17.40;14.15;;;-1.40;1.40;;;-0.87;100.00;95021.38;662805;211;31475;-73
2021/01/08 07:06:55;;;;;;;17.27;12.97;;;-1.40;1.40;;;-0.86;100.00;95019.42;653132;216;23455;-73
2021/01/08 07:09:23;;;;;;;15.57;11.23;;;-1.40;1.40;;;-0.86;100.00;95023.58;670377;211;24436;-71
2021/01/08 07:14:32;;;;;;;14.65;11.50;;;-1.40;1.40;;;-0.82;100.00;95025.60;646098;216;32096;-72
2021/01/08 07:17:01;;;;;;;17.07;12.20;;;-1.40;1.40;;;-0.86;100.00;95029.05;636704;221;32016;-72
2021/01/08 07:19:29;;;;;;;14.33;11.17;;;-1.30;1.40;;;-0.87;100.00;95031.59;644035;220;24554;-72
2021/01/08 07:21:59;;;;;;;13.00;10.07;;;-1.30;1.40;;;-0.81;100.00;95033.97;652735;216;24569;-72
2021/01/08 07:24:30;;;;;;;13.77;9.60;;;-1.30;1.40;;;-0.87;100.00;95033.88;654302;216;24504;-72
2021/01/08 07:27:24;;;;;;;12.63;9.50;;;-1.40;1.40;;;-0.86;100.00;95038.52;655202;216;24469;-72
2021/01/08 07:29:52;;;;;;;11.77;9.00;;;-1.40;1.40;;;-0.79;100.00;95042.40;653477;216;26647;-72
2021/01/08 07:32:39;;;;;;;15.07;11.30;;;-1.40;1.40;;;-0.76;100.00;95042.13;648983;216;31564;-73
2021/01/08 07:35:29;;;;;;;16.67;11.77;;;-1.30;1.40;;;-0.89;100.00;95043.75;654263;216;28816;-73
2021/01/08 07:38:00;;;;;;;11.97;10.50;;;-1.30;1.40;;;-0.93;100.00;95044.22;666522;211;24461;-73
2021/01/08 07:40:29;;;;;;;16.30;13.30;;;-1.30;1.40;;;-0.86;100.00;95044.48;649580;211;31704;-72
2021/01/08 07:43:01;;;;;;;17.05;14.25;;;-1.20;1.40;;;-0.77;100.00;95051.00;648028;215;31753;-72
2021/01/08 07:45:47;;;;;;;17.87;12.93;;;-1.20;1.40;;;-0.77;100.00;95052.48;656261;215;23473;-73
2021/01/08 07:48:23;;;;;;;16.10;12.37;;;-1.10;1.40;;;-0.66;100.00;95057.05;643421;221;24532;-73
2021/01/08 07:50:57;;;;;;;15.30;11.67;;;-1.10;1.40;;;-0.53;100.00;95061.20;656574;216;27659;-72
2021/01/08 07:56:06;;;;;;;19.45;15.00;;;-1.10;1.40;;;-0.52;100.00;95060.79;646498;212;31712;-71
2021/01/08 07:58:36;;;;;;;20.00;14.30;;;-1.00;1.40;;;-0.53;100.00;95069.98;639598;221;29829;-70
2021/01/08 08:01:04;;;;;;;18.73;13.80;;;-1.00;1.40;;;-0.59;100.00;95069.98;641259;220;24557;-71
2021/01/08 08:06:07;;;;;;;18.42;14.63;;;-0.90;1.40;;;-0.46;100.00;95074.72;644480;216;32062;-71
2021/01/08 08:08:42;;;;;;;19.93;15.17;;;-0.90;1.40;;;-0.40;100.00;95078.05;639167;221;28835;-71
2021/01/08 08:11:12;;;;;;;18.40;13.93;;;-0.80;1.40;;;-0.24;100.00;95081.44;640875;220;24543;-69
2021/01/08 08:13:40;;;;;;;18.20;12.87;;;-0.70;1.40;;;-0.14;100.00;95082.39;643439;220;24599;-69
2021/01/08 08:16:09;;;;;;;17.60;12.20;;;-0.60;1.40;;;-0.11;100.00;95080.52;640432;221;24534;-69
2021/01/08 08:21:11;;;;;;;20.88;15.65;;;-0.60;1.40;;;-0.05;100.00;95086.02;647283;216;31919;-68
2021/01/08 08:23:41;;;;;;;18.65;15.13;;;-0.60;1.40;;;-0.13;100.00;95088.91;635883;220;32283;-69
2021/01/08 08:26:10;;;;;;;15.77;12.80;;;-0.60;1.40;;;-0.06;100.00;95087.19;641004;220;23477;-69
2021/01/08 08:28:38;;;;;;;16.97;13.67;;;-0.60;1.40;;;-0.12;99.99;95091.05;639834;221;25647;-69
2021/01/08 08:31:07;;;;;;;15.30;12.30;;;-0.60;1.40;;;-0.10;99.75;95089.53;641049;220;24532;-69
2021/01/08 08:33:35;;;;;;;13.97;12.40;;;-0.50;1.40;;;-0.02;99.42;95090.05;652045;217;24487;-69
2021/01/08 08:36:05;;;;;;;16.75;13.57;;;-0.50;1.40;;;0.01;98.90;95087.72;636563;220;32412;-69
2021/01/08 08:38:34;;;;;;;17.67;14.50;;;-0.50;1.40;;;0.05;98.59;95093.11;662640;211;31690;-69
2021/01/08 08:41:11;;;;;;;15.03;12.13;;;-0.50;1.40;;;0.08;98.31;95091.50;667199;211;23411;-69
2021/01/08 08:43:40;;;;;;;14.73;12.20;;;-0.40;1.40;;;0.09;98.44;95086.91;665390;211;24502;-70
2021/01/08 08:46:08;;;;;;;17.58;13.52;;;-0.40;1.40;;;0.14;97.97;95089.00;649093;215;31694;-68
2021/01/08 08:48:37;;;;;;;14.00;11.30;;;-0.40;1.40;;;0.16;98.18;95091.27;655864;215;26380;-68
2021/01/08 08:51:05;;;;;;;16.08;13.02;;;-0.30;1.40;;;0.24;97.81;95087.19;653571;215;31606;-68
2021/01/08 08:53:35;;;;;;;14.83;12.27;;;-0.30;1.40;;;0.15;97.43;95084.92;641307;220;23469;-69
2021/01/08 08:56:11;;;;;;;12.63;10.23;;;-0.30;1.40;;;0.36;97.66;95085.87;655571;215;25555;-68
2021/01/08 08:58:45;;;;;;;14.77;10.80;;;-0.20;1.40;;;0.34;96.53;95092.47;659429;215;24588;-68
2021/01/08 09:01:12;;;;;;;14.93;9.97;;;-0.20;1.40;;;0.29;96.38;95092.20;642345;221;24515;-68
2021/01/08 09:03:41;;;;;;;13.00;10.20;;;-0.10;1.40;;;0.40;96.37;95091.12;641833;221;24536;-69
2021/01/08 09:06:10;;;;;;;11.60;9.77;;;-0.10;1.40;;;0.47;96.16;95089.75;654269;216;24468;-69
2021/01/08 09:08:38;;;;;;;12.77;9.67;;;-0.10;1.40;;;0.40;95.87;95088.30;656773;216;24463;-68
2021/01/08 09:11:31;;;;;;;17.70;12.93;;;-0.10;1.40;;;0.54;95.61;95091.12;656961;216;24466;-69
2021/01/08 09:14:01;;;;;;;14.50;10.73;;;0.10;1.40;;;0.85;93.98;95083.91;661371;216;27798;-69
2021/01/08 09:16:32;;;;;;;11.17;8.73;;;0.20;1.40;;;0.84;93.92;95090.56;657883;216;24481;-70
2021/01/08 09:19:10;;;;;;;14.20;11.07;;;0.30;1.40;;;0.87;93.28;95090.75;634448;224;24588;-68
2021/01/08 09:24:13;;;;;;;13.80;11.10;;;0.40;1.40;;;0.88;92.31;95088.95;647238;216;31596;-69
2021/01/08 09:26:44;;;;;;;12.97;10.20;;;0.30;1.40;;;1.00;92.34;95092.55;638652;221;23483;-69
2021/01/08 09:29:10;;;;;;;13.47;10.80;;;0.40;1.40;;;0.85;91.88;95090.25;641104;221;25611;-69
2021/01/08 09:31:39;;;;;;;12.25;10.82;;;0.30;1.40;;;0.75;91.74;95091.12;635563;221;32096;-70
2021/01/08 09:34:08;;;;;;;13.80;10.27;;;0.20;1.40;;;0.82;91.73;95093.11;640679;220;23473;-70
2021/01/08 09:36:36;;;;;;;11.90;10.07;;;0.30;1.40;;;0.81;92.42;95097.31;642648;221;24575;-70
2021/01/08 09:39:06;;;;;;;10.40;9.23;;;0.40;1.40;;;1.17;91.96;95095.08;644180;220;24522;-69
2021/01/08 09:41:34;;;;;;;14.03;10.87;;;0.50;1.40;;;1.20;90.48;95096.48;641146;220;24644;-70
2021/01/08 09:44:03;;;;;;;13.37;9.73;;;0.50;1.40;;;1.35;90.22;95095.41;632055;221;26225;-70
2021/01/08 09:46:31;;;;;;;14.65;11.40;;;0.70;1.40;;;1.36;89.96;95098.73;623519;224;32023;-70
2021/01/08 09:49:05;;;;;;;11.00;9.83;;;0.70;1.40;;;1.22;90.05;95093.14;629992;225;23529;-70
2021/01/08 09:51:34;;;;;;;11.45;9.98;;;0.60;1.40;;;1.33;90.39;95095.72;623083;224;32183;-70
2021/01/08 09:54:02;;;;;;;11.37;9.33;;;0.60;1.40;;;1.41;89.16;95096.41;628751;225;23499;-70
2021/01/08 09:56:31;;;;;;;14.97;11.30;;;0.70;1.40;;;1.47;88.95;95096.09;633747;225;24582;-69
2021/01/08 09:59:13;;;;;;;11.87;9.60;;;0.80;1.40;;;1.38;88.16;95098.80;656448;215;24510;-70
2021/01/08 10:02:05;;;;;;;13.60;10.50;;;0.80;1.40;;;1.70;88.03;95098.27;657271;216;25966;-70
2021/01/08 10:04:29;;;;;;;12.70;10.20;;;1.00;1.40;;;1.82;86.91;95095.36;652769;216;24496;-70
2021/01/08 10:09:53;;;;;;;12.48;10.75;;;1.20;1.40;;;1.54;86.57;95102.79;648220;212;42242;-69
2021/01/08 10:12:22;;;;;;;16.33;11.30;;;0.80;1.40;;;1.28;88.22;95098.69;641092;220;23467;-69
2021/01/08 10:14:50;;;;;;;10.47;9.07;;;0.60;1.40;;;1.09;89.01;95100.11;638034;220;25560;-69
2021/01/08 10:17:20;;;;;;;12.60;9.80;;;0.50;1.40;;;1.28;89.53;95100.13;638621;220;24494;-69
2021/01/08 10:19:47;;;;;;;12.63;10.03;;;0.70;1.40;;;1.56;87.18;95099.91;655348;216;24468;-68
2021/01/08 10:22:20;;;;;;;14.00;9.37;;;0.90;1.40;;;1.43;86.79;95098.56;672259;211;25450;-69
2021/01/08 10:24:49;;;;;;;12.00;9.53;;;0.90;1.40;;;2.07;86.63;95085.28;666167;211;24410;-70
2021/01/08 10:27:18;;;;;;;12.47;10.13;;;1.60;1.40;;;2.77;82.76;95090.42;654548;216;24496;-69
2021/01/08 10:29:46;;;;;;;12.80;9.60;;;2.50;1.40;;;4.57;73.56;95092.58;653481;216;24489;-70
2021/01/08 10:32:15;;;;;;;10.00;8.83;;;4.00;1.40;;;5.46;68.92;95086.46;667792;211;24490;-69
2021/01/08 10:34:43;;;;;;;12.00;10.52;;;4.60;1.40;;;7.33;64.01;95081.41;663876;211;31387;-71
2021/01/08 10:39:51;;;;;;;11.48;10.27;;;6.50;1.40;;;8.73;56.26;95076.56;636691;216;32276;-71
2021/01/08 10:42:19;;;;;;;11.20;10.10;;;7.90;1.40;;;9.83;52.73;95076.77;621643;225;33543;-71
2021/01/08 10:44:48;;;;;;;9.70;8.70;;;7.90;1.40;;;10.30;51.14;95077.73;629205;224;24542;-71
2021/01/08 10:47:16;;;;;;;9.93;8.93;;;8.00;1.40;;;9.71;51.60;95075.44;630193;224;24591;-71
2021/01/08 10:49:44;;;;;;;10.80;9.80;;;7.40;1.40;;;8.93;53.48;95073.56;625476;225;31894;-71
2021/01/08 10:54:47;;;;;;;10.70;9.70;;;5.40;1.40;;;7.11;60.31;95073.34;651116;216;42271;-71
2021/01/08 10:57:15;;;;;;;10.52;9.52;;;5.60;1.40;;;7.89;59.29;95072.48;633264;220;31809;-73
2021/01/08 10:59:44;;;;;;;10.80;9.33;;;6.60;1.40;;;7.09;58.09;95069.55;641459;220;23529;-72
2021/01/08 11:02:12;;;;;;;9.83;8.93;;;5.20;1.40;;;6.12;59.65;95066.80;639509;220;24526;-72
2021/01/08 11:04:41;;;;;;;9.73;8.70;;;4.70;1.40;;;4.46;64.60;95070.37;642042;221;24527;-73
2021/01/08 11:07:09;;;;;;;9.80;8.73;;;3.60;1.40;;;4.46;65.11;95069.46;642509;220;24495;-72
2021/01/08 11:12:14;;;;;;;10.90;9.20;;;3.00;1.40;;;3.47;70.17;95066.48;645728;213;31635;-68
2021/01/08 11:14:42;;;;;;;10.50;9.10;;;3.20;1.40;;;3.68;68.65;95063.64;640265;220;24533;-69